createdAt,value
2018-07-27T00:01:39.842Z,9.33
2018-07-27T00:04:08.798Z,9.70
2018-07-27T00:06:37.805Z,9.37
2018-07-27T00:09:09.689Z,9.50
2018-07-27T00:11:38.661Z,9.90
2018-07-27T00:14:07.937Z,9.80
2018-07-27T00:16:36.953Z,9.87
2018-07-27T00:19:06.204Z,10.47
2018-07-27T00:21:35.613Z,9.63
2018-07-27T00:24:04.657Z,10.77
2018-07-27T00:26:33.685Z,10.40
2018-07-27T00:29:02.689Z,9.80
2018-07-27T00:31:31.697Z,10.00
2018-07-27T00:34:00.698Z,10.17
2018-07-27T00:36:29.733Z,10.10
2018-07-27T00:38:58.717Z,10.70
2018-07-27T00:41:27.725Z,10.03
2018-07-27T00:43:56.759Z,10.80
2018-07-27T00:46:25.764Z,10.30
2018-07-27T00:48:54.775Z,10.43
2018-07-27T00:51:23.749Z,10.73
2018-07-27T00:53:52.757Z,10.47
2018-07-27T00:56:21.762Z,9.77
2018-07-27T00:58:50.837Z,10.73
2018-07-27T01:01:19.867Z,10.27
2018-07-27T01:03:49.309Z,11.40
2018-07-27T01:06:18.338Z,10.83
2018-07-27T01:08:47.325Z,10.97
2018-07-27T01:11:16.323Z,10.50
2018-07-27T01:13:45.293Z,11.27
2018-07-27T01:16:14.372Z,10.57
2018-07-27T01:18:43.333Z,10.67
2018-07-27T01:21:12.315Z,11.43
2018-07-27T01:23:41.414Z,11.70
2018-07-27T01:26:10.439Z,11.30
2018-07-27T01:28:39.448Z,11.47
2018-07-27T01:31:08.459Z,11.40
2018-07-27T01:33:37.549Z,11.67
2018-07-27T01:36:06.573Z,11.60
2018-07-27T01:38:35.716Z,11.90
2018-07-27T01:41:04.696Z,11.33
2018-07-27T01:43:33.960Z,11.83
2018-07-27T01:46:03.001Z,11.70
2018-07-27T01:48:32.256Z,13.10
2018-07-27T01:51:01.377Z,11.73
2018-07-27T01:53:30.311Z,11.83
2018-07-27T01:55:59.424Z,11.40
2018-07-27T01:58:28.464Z,11.17
2018-07-27T02:00:57.507Z,10.73
2018-07-27T02:03:26.498Z,10.70
2018-07-27T02:05:55.592Z,10.33
2018-07-27T02:08:24.577Z,10.60
2018-07-27T02:10:53.536Z,10.47
2018-07-27T02:13:22.552Z,10.07
2018-07-27T02:15:51.293Z,9.53
2018-07-27T02:18:20.186Z,10.47
2018-07-27T02:20:49.194Z,9.07
2018-07-27T02:23:18.204Z,10.20
2018-07-27T02:25:47.214Z,9.40
2018-07-27T02:28:16.198Z,9.40
2018-07-27T02:30:45.240Z,9.33
2018-07-27T02:33:14.239Z,10.00
2018-07-27T02:35:43.266Z,9.20
2018-07-27T02:38:12.310Z,9.27
2018-07-27T02:40:41.697Z,8.80
2018-07-27T02:43:10.684Z,8.47
2018-07-27T02:45:39.411Z,8.47
2018-07-27T02:48:08.360Z,8.30
2018-07-27T02:50:37.361Z,8.03
2018-07-27T02:53:06.442Z,8.30
2018-07-27T02:55:35.461Z,8.70
2018-07-27T02:58:04.597Z,8.37
2018-07-27T03:00:33.610Z,8.80
2018-07-27T03:03:02.590Z,9.10
2018-07-27T03:05:31.645Z,8.77
2018-07-27T03:08:00.742Z,9.47
2018-07-27T03:10:29.754Z,9.13
2018-07-27T03:12:58.734Z,9.80
2018-07-27T03:15:27.742Z,9.50
2018-07-27T03:17:56.804Z,8.60
2018-07-27T03:20:25.797Z,8.20
2018-07-27T03:22:54.801Z,8.60
2018-07-27T03:25:23.810Z,8.40
2018-07-27T03:27:52.857Z,8.47
2018-07-27T03:30:21.858Z,8.30
2018-07-27T03:32:50.837Z,8.50
2018-07-27T03:35:19.837Z,8.70
2018-07-27T03:37:48.893Z,9.00
2018-07-27T03:40:17.917Z,8.77
2018-07-27T03:42:46.993Z,9.10
2018-07-27T03:45:15.973Z,7.67
2018-07-27T03:47:45.146Z,7.43
2018-07-27T03:50:14.098Z,7.67
2018-07-27T03:52:43.185Z,7.13
2018-07-27T03:55:12.261Z,7.13
2018-07-27T03:57:41.335Z,6.67
2018-07-27T04:00:11.951Z,6.20
2018-07-27T04:02:41.256Z,6.20
2018-07-27T04:05:10.326Z,6.20
2018-07-27T04:07:39.355Z,5.93
2018-07-27T04:10:08.417Z,6.00
2018-07-27T04:12:37.445Z,6.10
2018-07-27T04:15:06.669Z,6.23
2018-07-27T04:17:35.735Z,5.57
2018-07-27T04:20:05.069Z,6.30
2018-07-27T04:22:34.106Z,6.47
2018-07-27T04:25:03.085Z,5.80
2018-07-27T04:27:32.177Z,5.67
2018-07-27T04:30:01.265Z,5.97
2018-07-27T04:32:30.257Z,7.43
2018-07-27T04:34:59.294Z,6.33
2018-07-27T04:37:28.354Z,5.93
2018-07-27T04:39:57.379Z,5.77
2018-07-27T04:42:26.420Z,6.33
2018-07-27T04:44:55.440Z,6.37
2018-07-27T04:47:24.537Z,5.70
2018-07-27T04:49:53.515Z,6.10
2018-07-27T04:52:22.556Z,6.10
2018-07-27T04:54:51.535Z,6.80
2018-07-27T04:57:20.539Z,6.67
2018-07-27T04:59:49.638Z,6.10
2018-07-27T05:02:18.626Z,6.40
2018-07-27T05:04:47.787Z,6.40
2018-07-27T05:07:16.786Z,6.50
2018-07-27T05:09:45.782Z,6.30
2018-07-27T05:12:14.891Z,6.30
2018-07-27T05:14:43.886Z,6.77
2018-07-27T05:17:12.663Z,6.60
2018-07-27T05:19:41.566Z,6.07
2018-07-27T05:22:10.589Z,6.57
2018-07-27T05:24:39.630Z,6.70
2018-07-27T05:27:08.597Z,6.07
2018-07-27T05:29:37.613Z,6.83
2018-07-27T05:32:06.797Z,6.90
2018-07-27T05:34:35.797Z,6.00
2018-07-27T05:37:05.067Z,6.17
2018-07-27T05:39:34.044Z,5.87
2018-07-27T05:42:03.039Z,6.70
2018-07-27T05:44:32.013Z,6.10
2018-07-27T05:47:01.035Z,6.30
2018-07-27T05:49:30.061Z,6.23
2018-07-27T05:51:59.048Z,6.33
2018-07-27T05:54:28.003Z,6.10
2018-07-27T05:56:57.050Z,6.43
2018-07-27T05:59:26.154Z,5.90
2018-07-27T06:01:55.129Z,6.47
2018-07-27T06:04:24.134Z,6.50
2018-07-27T06:06:53.108Z,6.33
2018-07-27T06:09:22.166Z,6.30
2018-07-27T06:11:51.159Z,6.33
2018-07-27T06:14:20.124Z,6.30
2018-07-27T06:16:49.116Z,6.03
2018-07-27T06:19:18.106Z,5.80
2018-07-27T06:21:47.081Z,6.23
2018-07-27T06:24:16.084Z,5.90
2018-07-27T06:26:45.084Z,5.97
2018-07-27T06:29:14.127Z,5.87
2018-07-27T06:31:43.121Z,6.03
2018-07-27T06:34:12.269Z,5.87
2018-07-27T06:36:41.285Z,5.53
2018-07-27T06:39:11.580Z,5.57
2018-07-27T06:41:41.134Z,5.70
2018-07-27T06:44:10.124Z,5.50
2018-07-27T06:46:39.110Z,5.30
2018-07-27T06:49:08.156Z,5.37
2018-07-27T06:51:37.158Z,5.30
2018-07-27T06:54:06.213Z,5.67
2018-07-27T06:56:35.194Z,5.13
2018-07-27T06:59:04.216Z,5.40
2018-07-27T07:01:33.225Z,6.10
2018-07-27T07:04:02.378Z,5.13
2018-07-27T07:06:31.452Z,5.20
2018-07-27T07:09:00.726Z,4.87
2018-07-27T07:11:29.989Z,5.50
2018-07-27T07:13:58.938Z,4.80
2018-07-27T07:16:27.906Z,5.03
2018-07-27T07:18:56.892Z,5.00
2018-07-27T07:21:26.414Z,5.33
2018-07-27T07:23:55.414Z,5.87
2018-07-27T07:26:24.730Z,5.07
2018-07-27T07:28:53.640Z,5.77
2018-07-27T07:31:22.638Z,4.77
2018-07-27T07:33:51.825Z,5.30
2018-07-27T07:36:20.863Z,5.20
2018-07-27T07:38:50.231Z,5.20
2018-07-27T07:41:19.210Z,5.30
2018-07-27T07:43:48.190Z,4.63
2018-07-27T07:46:17.229Z,4.80
2018-07-27T07:48:46.410Z,5.07
2018-07-27T07:51:15.412Z,4.83
2018-07-27T07:53:44.381Z,4.80
2018-07-27T07:56:13.386Z,4.87
2018-07-27T07:58:42.371Z,4.37
2018-07-27T08:01:11.385Z,4.27
2018-07-27T08:03:40.367Z,4.83
2018-07-27T08:06:09.363Z,4.83
2018-07-27T08:08:38.333Z,4.23
2018-07-27T08:11:08.426Z,4.10
2018-07-27T08:13:37.429Z,4.27
2018-07-27T08:16:06.436Z,3.90
2018-07-27T08:18:35.476Z,3.93
2018-07-27T08:21:04.549Z,3.90
2018-07-27T08:23:33.494Z,4.23
2018-07-27T08:26:38.749Z,4.30
2018-07-27T08:29:09.315Z,4.10
2018-07-27T08:31:39.106Z,4.20
2018-07-27T08:34:08.119Z,4.30
2018-07-27T08:36:37.137Z,3.80
2018-07-27T08:39:08.377Z,3.80
2018-07-27T08:41:38.369Z,3.70
2018-07-27T08:44:08.375Z,3.73
2018-07-27T08:46:37.677Z,3.60
2018-07-27T08:49:06.677Z,4.00
2018-07-27T08:51:35.690Z,3.77
2018-07-27T08:54:04.775Z,3.50
2018-07-27T08:56:33.717Z,4.03
2018-07-27T08:59:02.721Z,3.80
2018-07-27T09:01:31.831Z,3.30
2018-07-27T09:04:01.007Z,3.60
2018-07-27T09:06:30.051Z,3.90
2018-07-27T09:08:59.047Z,3.73
2018-07-27T09:11:28.079Z,3.70
2018-07-27T09:13:57.440Z,3.80
2018-07-27T09:16:26.410Z,3.40
2018-07-27T09:18:55.462Z,3.47
2018-07-27T09:21:24.521Z,4.17
2018-07-27T09:23:53.496Z,4.00
2018-07-27T09:26:22.280Z,4.23
2018-07-27T09:28:51.296Z,3.50
2018-07-27T09:31:20.310Z,3.80
2018-07-27T09:33:49.345Z,3.80
2018-07-27T09:36:18.360Z,3.70
2018-07-27T09:38:47.417Z,3.57
2018-07-27T09:41:16.443Z,3.70
2018-07-27T09:43:45.460Z,3.60
2018-07-27T09:46:14.438Z,3.70
2018-07-27T09:48:47.648Z,3.47
2018-07-27T09:51:16.705Z,3.63
2018-07-27T09:53:45.736Z,3.60
2018-07-27T09:56:14.771Z,3.20
2018-07-27T09:58:43.824Z,3.13
2018-07-27T10:01:18.342Z,3.27
2018-07-27T10:03:47.378Z,3.37
2018-07-27T10:06:16.372Z,3.60
2018-07-27T10:08:45.536Z,3.47
2018-07-27T10:11:14.556Z,3.53
2018-07-27T10:13:43.812Z,3.10
2018-07-27T10:16:12.767Z,2.90
2018-07-27T10:18:41.734Z,3.20
2018-07-27T10:21:10.705Z,3.20
2018-07-27T10:23:39.595Z,2.70
2018-07-27T10:26:08.645Z,2.77
2018-07-27T10:28:37.657Z,3.30
2018-07-27T10:31:06.741Z,2.93
2018-07-27T10:33:35.737Z,2.80
2018-07-27T10:36:05.043Z,2.80
2018-07-27T10:38:34.565Z,2.60
2018-07-27T10:41:03.561Z,2.60
2018-07-27T10:43:32.585Z,2.50
2018-07-27T10:46:02.270Z,2.80
2018-07-27T10:48:31.271Z,2.87
2018-07-27T10:51:00.281Z,2.70
2018-07-27T10:53:29.287Z,2.77
2018-07-27T10:55:58.321Z,2.57
2018-07-27T10:58:27.417Z,2.87
2018-07-27T11:00:56.630Z,2.57
2018-07-27T11:03:25.637Z,2.70
2018-07-27T11:05:55.357Z,2.80
2018-07-27T11:08:24.318Z,2.60
2018-07-27T11:10:53.438Z,3.10
2018-07-27T11:13:22.513Z,2.80
2018-07-27T11:15:51.481Z,2.47
2018-07-27T11:18:20.515Z,2.93
2018-07-27T11:20:49.587Z,2.80
2018-07-27T11:23:18.403Z,2.53
2018-07-27T11:25:47.261Z,2.47
2018-07-27T11:28:16.936Z,2.50
2018-07-27T11:30:45.932Z,2.40
2018-07-27T11:33:15.021Z,2.60
2018-07-27T11:35:44.013Z,2.90
2018-07-27T11:38:13.093Z,2.70
2018-07-27T11:40:47.713Z,2.70
2018-07-27T11:43:16.736Z,2.83
2018-07-27T11:45:45.718Z,2.50
2018-07-27T11:48:14.751Z,2.70
2018-07-27T11:50:43.881Z,2.60
2018-07-27T11:53:12.909Z,2.47
2018-07-27T11:55:41.924Z,2.57
2018-07-27T11:58:10.928Z,2.50
2018-07-27T12:00:39.973Z,2.70
2018-07-27T12:03:09.085Z,2.77
2018-07-27T12:05:38.108Z,2.90
2018-07-27T12:08:07.212Z,2.67
2018-07-27T12:10:36.288Z,2.50
2018-07-27T12:13:05.394Z,2.90
2018-07-27T12:15:34.360Z,2.50
2018-07-27T12:18:03.366Z,2.53
2018-07-27T12:20:32.981Z,2.63
2018-07-27T12:23:01.728Z,2.60
2018-07-27T12:25:30.798Z,3.10
2018-07-27T12:27:59.811Z,2.80
2018-07-27T12:30:29.005Z,2.80
2018-07-27T12:32:58.067Z,2.57
2018-07-27T12:35:27.030Z,2.77
2018-07-27T12:37:55.993Z,2.60
2018-07-27T12:40:25.016Z,2.40
2018-07-27T12:42:54.057Z,2.43
2018-07-27T12:45:23.025Z,2.33
2018-07-27T12:47:52.054Z,2.43
2018-07-27T12:50:21.241Z,2.40
2018-07-27T12:52:50.028Z,3.00
2018-07-27T12:55:18.955Z,2.40
2018-07-27T12:57:47.989Z,2.50
2018-07-27T13:00:16.717Z,2.50
2018-07-27T13:02:45.640Z,2.40
2018-07-27T13:05:14.779Z,2.70
2018-07-27T13:07:43.738Z,2.40
2018-07-27T13:10:12.720Z,2.53
2018-07-27T13:12:41.764Z,2.53
2018-07-27T13:15:10.738Z,2.43
2018-07-27T13:17:39.600Z,2.80
2018-07-27T13:20:08.666Z,2.90
2018-07-27T13:22:37.732Z,2.90
2018-07-27T13:25:06.793Z,2.63
2018-07-27T13:27:35.790Z,2.70
2018-07-27T13:30:05.698Z,2.43
2018-07-27T13:32:34.757Z,2.93
2018-07-27T13:35:03.749Z,2.30
2018-07-27T13:37:33.856Z,2.60
2018-07-27T13:40:04.198Z,3.20
2018-07-27T13:42:34.504Z,3.17
2018-07-27T13:45:03.525Z,2.90
2018-07-27T13:47:32.505Z,3.13
2018-07-27T13:50:01.604Z,3.07
2018-07-27T13:52:30.691Z,3.57
2018-07-27T13:54:59.693Z,2.90
2018-07-27T13:57:28.812Z,3.00
2018-07-27T13:59:57.809Z,3.10
2018-07-27T14:02:26.844Z,3.40
2018-07-27T14:04:55.914Z,3.10
2018-07-27T14:07:24.917Z,3.40
2018-07-27T14:09:53.921Z,2.67
2018-07-27T14:12:23.128Z,3.00
2018-07-27T14:14:52.165Z,2.77
2018-07-27T14:17:21.158Z,3.20
2018-07-27T14:19:50.159Z,2.90
2018-07-27T14:22:19.257Z,2.90
2018-07-27T14:24:48.306Z,2.90
2018-07-27T14:27:17.341Z,3.30
2018-07-27T14:29:46.349Z,3.30
2018-07-27T14:32:15.446Z,3.13
2018-07-27T14:34:44.476Z,3.00
2018-07-27T14:37:13.509Z,3.07
2018-07-27T14:39:42.484Z,3.23
2018-07-27T14:42:11.537Z,2.87
2018-07-27T14:44:40.524Z,3.17
2018-07-27T14:47:09.494Z,3.20
2018-07-27T14:49:38.493Z,3.27
2018-07-27T14:52:07.561Z,3.30
2018-07-27T14:54:36.554Z,3.17
2018-07-27T14:57:05.551Z,3.13
2018-07-27T14:59:34.534Z,3.40
2018-07-27T15:02:03.612Z,3.47
2018-07-27T15:04:32.708Z,3.20
2018-07-27T15:07:01.693Z,3.43
2018-07-27T15:09:30.792Z,4.03
2018-07-27T15:11:59.748Z,3.40
2018-07-27T15:14:28.828Z,3.43
2018-07-27T15:16:57.900Z,3.00
2018-07-27T15:19:26.861Z,3.30
2018-07-27T15:21:55.892Z,3.33
2018-07-27T15:24:25.135Z,3.30
2018-07-27T15:26:54.109Z,3.30
2018-07-27T15:29:23.174Z,3.40
2018-07-27T15:31:52.193Z,3.20
2018-07-27T15:34:21.238Z,3.00
2018-07-27T15:36:50.203Z,3.20
2018-07-27T15:39:19.346Z,3.33
2018-07-27T15:41:48.320Z,3.50
2018-07-27T15:44:17.352Z,3.03
2018-07-27T15:46:46.422Z,3.30
2018-07-27T15:49:15.414Z,3.57
2018-07-27T15:51:45.240Z,3.47
2018-07-27T15:54:14.324Z,3.10
2018-07-27T15:56:43.500Z,2.80
2018-07-27T15:59:12.630Z,3.10
2018-07-27T16:01:41.602Z,3.23
2018-07-27T16:04:10.666Z,2.93
2018-07-27T16:06:39.711Z,3.00
2018-07-27T16:09:09.633Z,2.90
2018-07-27T16:11:38.702Z,3.50
2018-07-27T16:14:07.488Z,3.10
2018-07-27T16:16:36.373Z,4.40
2018-07-27T16:19:05.111Z,3.00
2018-07-27T16:21:34.138Z,2.87
2018-07-27T16:24:03.160Z,2.90
2018-07-27T16:26:32.183Z,2.70
2018-07-27T16:29:01.202Z,3.30
2018-07-27T16:31:30.263Z,3.30
2018-07-27T16:33:59.376Z,3.03
2018-07-27T16:36:28.504Z,2.90
2018-07-27T16:38:57.756Z,3.00
2018-07-27T16:41:26.845Z,2.70
2018-07-27T16:43:56.663Z,3.07
2018-07-27T16:46:25.741Z,2.97
2018-07-27T16:48:54.693Z,2.90
2018-07-27T16:51:23.691Z,3.33
2018-07-27T16:53:52.722Z,2.80
2018-07-27T16:56:21.931Z,3.00
2018-07-27T16:58:51.031Z,3.10
2018-07-27T17:01:20.202Z,2.97
2018-07-27T17:03:49.233Z,3.07
2018-07-27T17:06:18.339Z,3.20
2018-07-27T17:08:47.615Z,3.20
2018-07-27T17:11:16.713Z,2.97
2018-07-27T17:13:45.788Z,3.10
2018-07-27T17:16:14.786Z,3.03
2018-07-27T17:18:43.780Z,3.10
2018-07-27T17:21:12.791Z,3.30
2018-07-27T17:23:41.909Z,3.00
2018-07-27T17:26:11.237Z,3.13
2018-07-27T17:28:40.261Z,2.90
2018-07-27T17:31:09.271Z,3.10
2018-07-27T17:33:38.250Z,2.90
2018-07-27T17:36:07.009Z,2.90
2018-07-27T17:38:35.933Z,2.87
2018-07-27T17:41:05.057Z,3.60
2018-07-27T17:43:34.459Z,2.80
2018-07-27T17:46:03.621Z,3.17
2018-07-27T17:48:32.341Z,4.17
2018-07-27T17:51:01.427Z,3.20
2018-07-27T17:53:30.813Z,3.40
2018-07-27T17:56:00.038Z,3.17
2018-07-27T17:58:29.119Z,3.60
2018-07-27T18:00:58.170Z,3.57
2018-07-27T18:03:27.193Z,3.20
2018-07-27T18:05:56.237Z,3.20
2018-07-27T18:08:25.675Z,3.10
2018-07-27T18:10:55.979Z,2.70
2018-07-27T18:13:25.031Z,3.27
2018-07-27T18:15:54.225Z,3.70
2018-07-27T18:18:23.289Z,4.47
2018-07-27T18:20:52.419Z,3.50
2018-07-27T18:23:21.419Z,4.07
2018-07-27T18:25:53.941Z,3.90
2018-07-27T18:28:23.237Z,3.10
2018-07-27T18:30:52.236Z,3.43
2018-07-27T18:33:21.308Z,4.20
2018-07-27T18:35:50.395Z,4.03
2018-07-27T18:38:19.400Z,3.40
2018-07-27T18:40:48.388Z,4.80
2018-07-27T18:43:17.451Z,7.27
2018-07-27T18:45:46.514Z,7.70
2018-07-27T18:48:15.540Z,4.70
2018-07-27T18:50:44.582Z,4.30
2018-07-27T18:53:13.624Z,4.23
2018-07-27T18:55:42.724Z,5.13
2018-07-27T18:58:12.025Z,7.20
2018-07-27T19:00:41.096Z,6.10
2018-07-27T19:03:10.166Z,3.80
2018-07-27T19:05:39.274Z,4.30
2018-07-27T19:08:08.410Z,3.93
2018-07-27T19:10:37.439Z,4.10
2018-07-27T19:13:06.498Z,3.70
2018-07-27T19:15:35.798Z,4.43
2018-07-27T19:18:04.898Z,3.93
2018-07-27T19:20:33.991Z,3.70
2018-07-27T19:23:03.596Z,4.00
2018-07-27T19:25:32.590Z,4.30
2018-07-27T19:28:01.890Z,4.00
2018-07-27T19:30:31.004Z,4.37
2018-07-27T19:33:00.088Z,4.23
2018-07-27T19:35:29.134Z,4.53
2018-07-27T19:37:58.144Z,4.40
2018-07-27T19:40:27.109Z,4.23
2018-07-27T19:42:56.066Z,4.83
2018-07-27T19:45:25.151Z,5.80
2018-07-27T19:47:54.211Z,5.33
2018-07-27T19:50:23.304Z,4.83
2018-07-27T19:52:52.334Z,4.20
2018-07-27T19:55:21.434Z,4.30
2018-07-27T19:57:50.552Z,5.03
2018-07-27T20:00:19.733Z,4.30
2018-07-27T20:02:48.825Z,4.33
2018-07-27T20:05:18.001Z,4.13
2018-07-27T20:07:47.115Z,4.17
2018-07-27T20:10:16.206Z,4.53
2018-07-27T20:12:45.276Z,4.67
2018-07-27T20:15:14.385Z,4.30
2018-07-27T20:17:43.109Z,4.73
2018-07-27T20:20:12.077Z,4.87
2018-07-27T20:22:41.089Z,4.93
2018-07-27T20:25:10.173Z,4.93
2018-07-27T20:27:57.657Z,4.93
2018-07-27T20:30:26.997Z,5.70
2018-07-27T20:32:56.164Z,4.80
2018-07-27T20:35:24.880Z,4.30
2018-07-27T20:37:53.977Z,4.70
2018-07-27T20:40:22.998Z,5.20
2018-07-27T20:42:52.041Z,5.53
2018-07-27T20:45:21.163Z,5.10
2018-07-27T20:50:22.825Z,4.60
2018-07-27T20:52:52.225Z,4.67
2018-07-27T20:55:21.557Z,4.63
2018-07-27T20:57:50.677Z,4.40
2018-07-27T21:00:19.731Z,4.73
2018-07-27T21:02:49.078Z,4.60
2018-07-27T21:05:18.239Z,4.70
2018-07-27T21:07:47.334Z,4.43
2018-07-27T21:10:16.329Z,4.53
2018-07-27T21:12:45.881Z,4.57
2018-07-27T21:15:14.927Z,4.60
2018-07-27T21:17:43.945Z,4.43
2018-07-27T21:20:12.963Z,4.20
2018-07-27T21:22:42.275Z,6.03
2018-07-27T21:25:11.755Z,4.20
2018-07-27T21:27:40.814Z,4.10
2018-07-27T21:30:09.864Z,4.20
2018-07-27T21:32:40.196Z,4.37
2018-07-27T21:35:09.248Z,4.03
2018-07-27T21:37:38.441Z,4.30
2018-07-27T21:40:07.512Z,4.27
2018-07-27T21:42:36.542Z,4.17
2018-07-27T21:45:06.186Z,3.87
2018-07-27T21:47:36.270Z,3.80
2018-07-27T21:50:06.050Z,3.87
2018-07-27T21:52:35.027Z,3.70
2018-07-27T21:55:04.173Z,3.60
2018-07-27T21:57:33.994Z,3.50
2018-07-27T22:00:03.000Z,3.90
2018-07-27T22:02:32.052Z,3.80
2018-07-27T22:05:01.135Z,4.00
2018-07-27T22:07:30.305Z,3.97
2018-07-27T22:09:59.346Z,4.10
2018-07-27T22:12:28.604Z,3.90
2018-07-27T22:14:57.896Z,3.70
2018-07-27T22:17:26.718Z,4.10
2018-07-27T22:19:55.734Z,4.23
2018-07-27T22:22:24.804Z,3.80
2018-07-27T22:24:54.414Z,4.10
2018-07-27T22:27:23.444Z,3.90
2018-07-27T22:29:52.487Z,4.63
2018-07-27T22:32:21.451Z,4.30
2018-07-27T22:34:50.423Z,4.33
2018-07-27T22:37:19.461Z,4.10
2018-07-27T22:39:48.286Z,4.20
2018-07-27T22:42:17.254Z,4.10
2018-07-27T22:44:45.973Z,4.33
2018-07-27T22:47:14.951Z,4.30
2018-07-27T22:49:43.957Z,4.60
2018-07-27T22:52:12.929Z,4.70
2018-07-27T22:54:42.149Z,4.50
2018-07-27T22:57:11.361Z,4.67
2018-07-27T22:59:40.372Z,4.30
2018-07-27T23:02:09.411Z,4.63
2018-07-27T23:04:38.450Z,4.57
2018-07-27T23:07:07.463Z,4.83
2018-07-27T23:09:36.475Z,4.57
2018-07-27T23:12:05.695Z,4.90
2018-07-27T23:14:34.761Z,4.73
2018-07-27T23:17:03.745Z,4.70
2018-07-27T23:19:32.465Z,4.80
2018-07-27T23:22:01.360Z,4.70
2018-07-27T23:24:30.305Z,4.97
2018-07-27T23:26:59.365Z,4.80
2018-07-27T23:29:28.386Z,5.13
2018-07-27T23:31:57.411Z,5.00
2018-07-27T23:34:26.432Z,5.40
2018-07-27T23:36:55.412Z,5.20
2018-07-27T23:39:24.519Z,5.20
2018-07-27T23:41:53.492Z,5.33
2018-07-27T23:44:22.505Z,5.30
2018-07-27T23:46:51.524Z,5.57
2018-07-27T23:49:20.565Z,5.93
2018-07-27T23:51:49.517Z,5.33
2018-07-27T23:54:19.105Z,5.60
2018-07-27T23:56:48.102Z,5.73
2018-07-27T23:59:17.372Z,5.67
